Time,TemperatureF,DewpointF,PressureIn,WindDirection,WindDirectionDegrees,WindSpeedMPH,WindSpeedGustMPH,Humidity,HourlyPrecipIn,Conditions,Clouds,dailyrainin,SoftwareType,DateUTC
2013-06-04 07:20:00,48.8,48.3,30.11,North,355,0.0,0.0,98,0.00,,,0.00,Wunderground v.1.15,2013-06-04 11:20:00,
2013-06-04 07:25:00,49.0,48.5,30.11,North,355,0.0,0.0,98,0.00,,,0.00,Wunderground v.1.15,2013-06-04 11:25:00,
2013-06-04 07:30:00,49.4,48.9,30.11,North,355,0.0,0.0,98,0.00,,,0.00,Wunderground v.1.15,2013-06-04 11:30:00,
2013-06-04 07:35:00,49.6,49.3,30.11,North,355,0.0,0.0,99,0.00,,,0.00,Wunderground v.1.15,2013-06-04 11:35:00,
2013-06-04 07:40:00,49.9,49.6,30.10,North,355,0.0,0.0,99,0.00,,,0.00,Wunderground v.1.15,2013-06-04 11:40:00,
2013-06-04 07:45:00,50.1,49.8,30.10,North,355,0.0,0.0,99,0.00,,,0.00,Wunderground v.1.15,2013-06-04 11:45:00,
2013-06-04 07:50:00,50.3,50.0,30.10,North,355,0.0,0.0,99,0.00,,,0.00,Wunderground v.1.15,2013-06-04 11:50:00,
2013-06-04 07:55:00,50.6,50.3,30.09,NE,55,0.0,0.0,99,0.00,,,0.00,Wunderground v.1.15,2013-06-04 11:55:00,
2013-06-04 08:00:00,51.0,50.7,30.09,NE,55,0.0,0.0,99,0.00,,,0.00,Wunderground v.1.15,2013-06-04 12:00:00,
2013-06-04 08:05:00,51.4,51.1,30.09,East,100,0.0,0.0,99,0.00,,,0.00,Wunderground v.1.15,2013-06-04 12:05:00,
2013-06-04 08:10:00,51.8,51.3,30.10,ENE,78,0.0,0.0,98,0.00,,,0.00,Wunderground v.1.15,2013-06-04 12:10:00,
2013-06-04 08:15:00,52.4,51.9,30.09,East,88,0.0,0.0,98,0.00,,,0.00,Wunderground v.1.15,2013-06-04 12:15:00,
2013-06-04 08:20:00,53.0,52.2,30.10,East,88,0.0,0.0,97,0.00,,,0.00,Wunderground v.1.15,2013-06-04 12:20:00,
2013-06-04 08:30:00,54.6,52.6,30.11,East,89,0.0,0.0,93,0.00,,,0.00,Wunderground v.1.15,2013-06-04 12:30:00,
2013-06-04 08:40:00,56.1,52.9,30.10,SE,132,0.0,1.0,89,0.00,,,0.00,Wunderground v.1.15,2013-06-04 12:40:00,
2013-06-04 08:45:00,56.7,52.6,30.10,ESE,117,0.0,1.0,86,0.00,,,0.00,Wunderground v.1.15,2013-06-04 12:45:00,
2013-06-04 08:50:00,57.3,52.8,30.11,ENE,59,0.0,1.0,85,0.00,,,0.00,Wunderground v.1.15,2013-06-04 12:50:00,
2013-06-04 08:55:00,58.2,53.4,30.11,ENE,78,0.0,1.0,84,0.00,,,0.00,Wunderground v.1.15,2013-06-04 12:55:00,
2013-06-04 09:00:00,59.2,54.0,30.10,ENE,57,0.0,0.0,83,0.00,,,0.00,Wunderground v.1.15,2013-06-04 13:00:00,
2013-06-04 09:05:00,59.8,54.0,30.10,SE,132,0.0,0.0,81,0.00,,,0.00,Wunderground v.1.15,2013-06-04 13:05:00,
2013-06-04 09:10:00,60.2,54.3,30.10,East,86,0.0,2.0,81,0.00,,,0.00,Wunderground v.1.15,2013-06-04 13:10:00,
2013-06-04 09:15:00,60.7,53.1,30.10,East,84,0.0,2.0,76,0.00,,,0.00,Wunderground v.1.15,2013-06-04 13:15:00,
2013-06-04 09:25:00,61.2,53.6,30.10,East,79,1.0,1.0,76,0.00,,,0.00,Wunderground v.1.15,2013-06-04 13:25:00,
2013-06-04 09:35:00,62.1,54.4,30.10,ESE,105,1.0,1.0,76,0.00,,,0.00,Wunderground v.1.15,2013-06-04 13:35:00,
2013-06-04 09:45:00,63.2,54.8,30.11,ESE,118,0.0,0.0,74,0.00,,,0.00,Wunderground v.1.15,2013-06-04 13:45:00,
2013-06-04 09:55:00,63.9,55.4,30.11,SSE,152,0.0,1.0,74,0.00,,,0.00,Wunderground v.1.15,2013-06-04 13:55:00,
2013-06-04 10:00:00,64.4,54.4,30.11,ESE,119,1.0,2.0,70,0.00,,,0.00,Wunderground v.1.15,2013-06-04 14:00:00,
2013-06-04 10:05:00,65.0,54.2,30.11,East,87,1.0,2.0,68,0.00,,,0.00,Wunderground v.1.15,2013-06-04 14:05:00,
2013-06-04 10:10:00,65.6,54.8,30.11,SE,128,1.0,1.0,68,0.00,,,0.00,Wunderground v.1.15,2013-06-04 14:10:00,
2013-06-04 10:15:00,66.0,54.3,30.10,East,89,1.0,2.0,66,0.00,,,0.00,Wunderground v.1.15,2013-06-04 14:15:00,
2013-06-04 10:20:00,65.9,52.9,30.10,East,90,1.0,1.0,63,0.00,,,0.00,Wunderground v.1.15,2013-06-04 14:20:00,
2013-06-04 10:25:00,66.1,54.4,30.11,ESE,117,0.0,1.0,66,0.00,,,0.00,Wunderground v.1.15,2013-06-04 14:25:00,
2013-06-04 10:35:00,66.8,51.5,30.10,SE,130,1.0,1.0,58,0.00,,,0.00,Wunderground v.1.15,2013-06-04 14:35:00,
2013-06-04 10:50:00,67.5,52.2,30.10,ESE,109,2.0,3.0,58,0.00,,,0.00,Wunderground v.1.15,2013-06-04 14:50:00,
2013-06-04 10:55:00,67.5,50.3,30.10,ESE,123,1.0,3.0,54,0.00,,,0.00,Wunderground v.1.15,2013-06-04 14:55:00,
2013-06-04 11:00:00,67.6,50.9,30.10,SE,140,2.0,2.0,55,0.00,,,0.00,Wunderground v.1.15,2013-06-04 15:00:00,
2013-06-04 11:10:00,67.6,48.8,30.11,East,101,1.0,1.0,51,0.00,,,0.00,Wunderground v.1.15,2013-06-04 15:10:00,
2013-06-04 11:15:00,67.9,49.1,30.10,ESE,107,1.0,8.0,51,0.00,,,0.00,Wunderground v.1.15,2013-06-04 15:15:00,
2013-06-04 11:20:00,68.2,48.8,30.10,ENE,63,1.0,1.0,50,0.00,,,0.00,Wunderground v.1.15,2013-06-04 15:20:00,
2013-06-04 11:30:00,69.2,51.3,30.10,ESE,105,1.0,1.0,53,0.00,,,0.00,Wunderground v.1.15,2013-06-04 15:30:00,
2013-06-04 11:35:00,69.5,50.6,30.10,SE,144,1.0,2.0,51,0.00,,,0.00,Wunderground v.1.15,2013-06-04 15:35:00,
2013-06-04 11:40:00,70.1,50.0,30.10,NE,56,2.0,3.0,49,0.00,,,0.00,Wunderground v.1.15,2013-06-04 15:40:00,
2013-06-04 11:45:00,70.1,50.0,30.11,ESE,121,2.0,4.0,49,0.00,,,0.00,Wunderground v.1.15,2013-06-04 15:45:00,
2013-06-04 11:55:00,69.8,51.9,30.10,NNE,19,1.0,2.0,53,0.00,,,0.00,Wunderground v.1.15,2013-06-04 15:55:00,
2013-06-04 12:00:00,70.1,53.2,30.10,ESE,116,1.0,1.0,55,0.00,,,0.00,Wunderground v.1.15,2013-06-04 16:00:00,
2013-06-04 12:05:00,70.1,52.2,30.10,ESE,119,1.0,1.0,53,0.00,,,0.00,Wunderground v.1.15,2013-06-04 16:05:00,
2013-06-04 12:10:00,70.0,52.1,30.10,SSW,206,2.0,2.0,53,0.00,,,0.00,Wunderground v.1.15,2013-06-04 16:10:00,
2013-06-04 12:15:00,69.8,52.4,30.10,NE,54,2.0,2.0,54,0.00,,,0.00,Wunderground v.1.15,2013-06-04 16:15:00,
2013-06-04 12:20:00,70.0,53.1,30.10,ESE,109,1.0,2.0,55,0.00,,,0.00,Wunderground v.1.15,2013-06-04 16:20:00,
2013-06-04 12:25:00,70.2,51.2,30.10,East,98,1.0,3.0,51,0.00,,,0.00,Wunderground v.1.15,2013-06-04 16:25:00,
2013-06-04 12:30:00,70.6,51.1,30.09,SE,136,1.0,1.0,50,0.00,,,0.00,Wunderground v.1.15,2013-06-04 16:30:00,
2013-06-04 12:40:00,70.9,50.8,30.09,ESE,110,2.0,2.0,49,0.00,,,0.00,Wunderground v.1.15,2013-06-04 16:40:00,
2013-06-04 12:45:00,70.7,51.1,30.09,ENE,62,2.0,5.0,50,0.00,,,0.00,Wunderground v.1.15,2013-06-04 16:45:00,
2013-06-04 12:50:00,70.8,52.3,30.09,ESE,109,2.0,2.0,52,0.00,,,0.00,Wunderground v.1.15,2013-06-04 16:50:00,
2013-06-04 13:00:00,71.3,51.7,30.09,ESE,106,2.0,2.0,50,0.00,,,0.00,Wunderground v.1.15,2013-06-04 17:00:00,
2013-06-04 13:05:00,71.7,53.7,30.09,East,88,1.0,2.0,53,0.00,,,0.00,Wunderground v.1.15,2013-06-04 17:05:00,
2013-06-04 13:15:00,71.5,50.8,30.09,NE,37,2.0,3.0,48,0.00,,,0.00,Wunderground v.1.15,2013-06-04 17:15:00,
2013-06-04 13:20:00,71.7,54.7,30.09,ENE,76,1.0,2.0,55,0.00,,,0.00,Wunderground v.1.15,2013-06-04 17:20:00,
2013-06-04 13:30:00,72.4,51.6,30.09,NE,46,1.0,1.0,48,0.00,,,0.00,Wunderground v.1.15,2013-06-04 17:30:00,
2013-06-04 13:35:00,72.3,51.5,30.09,NNE,20,2.0,3.0,48,0.00,,,0.00,Wunderground v.1.15,2013-06-04 17:35:00,
2013-06-04 13:40:00,72.3,50.9,30.09,East,80,2.0,7.0,47,0.00,,,0.00,Wunderground v.1.15,2013-06-04 17:40:00,
2013-06-04 13:45:00,72.5,53.9,30.08,NE,51,2.0,7.0,52,0.00,,,0.00,Wunderground v.1.15,2013-06-04 17:45:00,
2013-06-04 13:55:00,72.7,50.7,30.09,East,94,2.0,2.0,46,0.00,,,0.00,Wunderground v.1.15,2013-06-04 17:55:00,
2013-06-04 14:05:00,73.0,52.7,30.08,NNE,30,2.0,6.0,49,0.00,,,0.00,Wunderground v.1.15,2013-06-04 18:05:00,
2013-06-04 14:10:00,72.9,50.9,30.08,SE,139,2.0,2.0,46,0.00,,,0.00,Wunderground v.1.15,2013-06-04 18:10:00,
2013-06-04 14:15:00,73.1,50.5,30.08,South,172,2.0,2.0,45,0.00,,,0.00,Wunderground v.1.15,2013-06-04 18:15:00,
2013-06-04 14:20:00,73.1,50.5,30.08,ESE,102,1.0,1.0,45,0.00,,,0.00,Wunderground v.1.15,2013-06-04 18:20:00,
2013-06-04 14:30:00,73.2,50.0,30.08,SSW,198,2.0,2.0,44,0.00,,,0.00,Wunderground v.1.15,2013-06-04 18:30:00,
2013-06-04 14:35:00,73.2,52.3,30.08,East,101,1.0,3.0,48,0.00,,,0.00,Wunderground v.1.15,2013-06-04 18:35:00,
2013-06-04 14:45:00,73.7,53.3,30.08,ENE,78,1.0,3.0,49,0.00,,,0.00,Wunderground v.1.15,2013-06-04 18:45:00,
2013-06-04 14:50:00,74.1,51.4,30.08,ENE,73,1.0,1.0,45,0.00,,,0.00,Wunderground v.1.15,2013-06-04 18:50:00,
2013-06-04 15:05:00,74.8,50.2,30.07,ESE,111,2.0,4.0,42,0.00,,,0.00,Wunderground v.1.15,2013-06-04 19:05:00,
2013-06-04 15:10:00,74.8,50.2,30.07,ENE,77,2.0,2.0,42,0.00,,,0.00,Wunderground v.1.15,2013-06-04 19:10:00,
2013-06-04 15:25:00,74.9,50.9,30.07,SE,136,1.0,1.0,43,0.00,,,0.00,Wunderground v.1.15,2013-06-04 19:25:00,
2013-06-04 15:35:00,75.2,53.0,30.08,ENE,67,1.0,3.0,46,0.00,,,0.00,Wunderground v.1.15,2013-06-04 19:35:00,
2013-06-04 15:40:00,75.2,52.4,30.08,East,92,2.0,2.0,45,0.00,,,0.00,Wunderground v.1.15,2013-06-04 19:40:00,
2013-06-04 15:45:00,75.5,52.7,30.08,ENE,78,1.0,3.0,45,0.00,,,0.00,Wunderground v.1.15,2013-06-04 19:45:00,
2013-06-04 15:50:00,75.7,53.4,30.07,ENE,65,1.0,1.0,46,0.00,,,0.00,Wunderground v.1.15,2013-06-04 19:50:00,
2013-06-04 15:55:00,76.1,56.1,30.07,ENE,72,1.0,1.0,50,0.00,,,0.00,Wunderground v.1.15,2013-06-04 19:55:00,
2013-06-04 16:00:00,76.2,53.9,30.07,SE,127,1.0,1.0,46,0.00,,,0.00,Wunderground v.1.15,2013-06-04 20:00:00,
2013-06-04 16:05:00,76.2,55.6,30.07,East,98,2.0,2.0,49,0.00,,,0.00,Wunderground v.1.15,2013-06-04 20:05:00,
2013-06-04 16:10:00,76.3,52.8,30.06,South,171,1.0,1.0,44,0.00,,,0.00,Wunderground v.1.15,2013-06-04 20:10:00,
2013-06-04 16:20:00,75.9,54.8,30.06,ENE,76,1.0,1.0,48,0.00,,,0.00,Wunderground v.1.15,2013-06-04 20:20:00,
2013-06-04 16:25:00,75.7,52.8,30.06,ESE,115,1.0,3.0,45,0.00,,,0.00,Wunderground v.1.15,2013-06-04 20:25:00,
2013-06-04 16:30:00,75.6,55.6,30.06,ESE,116,1.0,1.0,50,0.00,,,0.00,Wunderground v.1.15,2013-06-04 20:30:00,
2013-06-04 16:35:00,75.5,52.1,30.06,SE,125,1.0,1.0,44,0.00,,,0.00,Wunderground v.1.15,2013-06-04 20:35:00,
2013-06-04 16:45:00,75.1,52.3,30.05,ENE,61,1.0,1.0,45,0.00,,,0.00,Wunderground v.1.15,2013-06-04 20:45:00,
2013-06-04 16:50:00,75.2,50.5,30.05,ESE,108,2.0,3.0,42,0.00,,,0.00,Wunderground v.1.15,2013-06-04 20:50:00,
2013-06-04 17:00:00,75.7,52.2,30.04,SE,132,1.0,1.0,44,0.00,,,0.00,Wunderground v.1.15,2013-06-04 21:00:00,
2013-06-04 17:05:00,75.7,52.8,30.04,ESE,115,2.0,2.0,45,0.00,,,0.00,Wunderground v.1.15,2013-06-04 21:05:00,
2013-06-04 17:15:00,75.3,54.3,30.04,East,98,1.0,3.0,48,0.00,,,0.00,Wunderground v.1.15,2013-06-04 21:15:00,
2013-06-04 17:20:00,74.9,52.7,30.04,NE,36,2.0,3.0,46,0.00,,,0.00,Wunderground v.1.15,2013-06-04 21:20:00,
2013-06-04 17:35:00,75.0,54.5,30.03,ESE,111,1.0,1.0,49,0.00,,,0.00,Wunderground v.1.15,2013-06-04 21:35:00,
2013-06-04 17:40:00,75.2,55.3,30.04,ENE,57,1.0,3.0,50,0.00,,,0.00,Wunderground v.1.15,2013-06-04 21:40:00,
2013-06-04 17:45:00,75.1,53.5,30.04,East,86,1.0,3.0,47,0.00,,,0.00,Wunderground v.1.15,2013-06-04 21:45:00,
2013-06-04 17:55:00,75.4,56.5,30.03,East,85,0.0,1.0,52,0.00,,,0.00,Wunderground v.1.15,2013-06-04 21:55:00,
2013-06-04 18:00:00,75.5,54.4,30.03,ESE,110,0.0,2.0,48,0.00,,,0.00,Wunderground v.1.15,2013-06-04 22:00:00,
2013-06-04 18:10:00,75.4,54.9,30.03,East,83,0.0,1.0,49,0.00,,,0.00,Wunderground v.1.15,2013-06-04 22:10:00,
2013-06-04 18:20:00,75.0,54.0,30.03,ESE,111,1.0,1.0,48,0.00,,,0.00,Wunderground v.1.15,2013-06-04 22:20:00,
2013-06-04 18:30:00,74.9,53.9,30.03,SSE,163,1.0,1.0,48,0.00,,,0.00,Wunderground v.1.15,2013-06-04 22:30:00,
2013-06-04 18:35:00,74.7,53.7,30.03,ENE,75,1.0,4.0,48,0.00,,,0.00,Wunderground v.1.15,2013-06-04 22:35:00,
2013-06-04 18:40:00,74.5,56.2,30.03,ENE,77,1.0,1.0,53,0.00,,,0.00,Wunderground v.1.15,2013-06-04 22:40:00,
2013-06-04 18:50:00,74.0,55.8,30.03,NE,49,0.0,0.0,53,0.00,,,0.00,Wunderground v.1.15,2013-06-04 22:50:00,
2013-06-04 18:55:00,73.7,55.0,30.03,East,86,1.0,1.0,52,0.00,,,0.00,Wunderground v.1.15,2013-06-04 22:55:00,
2013-06-04 19:05:00,72.8,54.1,30.03,East,90,1.0,1.0,52,0.00,,,0.00,Wunderground v.1.15,2013-06-04 23:05:00,
2013-06-04 19:10:00,72.6,55.5,30.03,East,89,0.0,0.0,55,0.00,,,0.00,Wunderground v.1.15,2013-06-04 23:10:00,
2013-06-04 19:15:00,72.4,53.8,30.03,NE,51,0.0,1.0,52,0.00,,,0.00,Wunderground v.1.15,2013-06-04 23:15:00,
2013-06-04 19:20:00,72.2,56.1,30.02,NE,51,0.0,0.0,57,0.00,,,0.00,Wunderground v.1.15,2013-06-04 23:20:00,
2013-06-04 19:25:00,72.0,55.4,30.03,ENE,63,0.0,1.0,56,0.00,,,0.00,Wunderground v.1.15,2013-06-04 23:25:00,
2013-06-04 19:30:00,71.7,55.2,30.03,ENE,63,0.0,1.0,56,0.00,,,0.00,Wunderground v.1.15,2013-06-04 23:30:00,
2013-06-04 19:35:00,71.3,56.2,30.03,ENE,63,0.0,1.0,59,0.00,,,0.00,Wunderground v.1.15,2013-06-04 23:35:00,
2013-06-04 19:40:00,71.0,53.5,30.03,ENE,63,0.0,0.0,54,0.00,,,0.00,Wunderground v.1.15,2013-06-04 23:40:00,
2013-06-04 19:45:00,70.7,56.1,30.03,ENE,63,0.0,0.0,60,0.00,,,0.00,Wunderground v.1.15,2013-06-04 23:45:00,
2013-06-04 19:50:00,70.4,54.4,30.03,ENE,63,0.0,0.0,57,0.00,,,0.00,Wunderground v.1.15,2013-06-04 23:50:00,
2013-06-04 20:00:00,69.9,54.4,30.03,ENE,63,0.0,0.0,58,0.00,,,0.00,Wunderground v.1.15,2013-06-05 00:00:00,
2013-06-04 20:05:00,69.5,55.5,30.03,ENE,63,0.0,0.0,61,0.00,,,0.00,Wunderground v.1.15,2013-06-05 00:05:00,
2013-06-04 20:15:00,69.0,55.9,30.03,ENE,63,0.0,0.0,63,0.00,,,0.00,Wunderground v.1.15,2013-06-05 00:15:00,
2013-06-04 20:20:00,68.8,54.3,30.03,ENE,69,0.0,0.0,60,0.00,,,0.00,Wunderground v.1.15,2013-06-05 00:20:00,
2013-06-04 20:25:00,68.6,53.7,30.03,ENE,67,0.0,0.0,59,0.00,,,0.00,Wunderground v.1.15,2013-06-05 00:25:00,
2013-06-04 20:30:00,68.5,54.5,30.03,ENE,67,0.0,0.0,61,0.00,,,0.00,Wunderground v.1.15,2013-06-05 00:30:00,
2013-06-04 20:35:00,68.2,54.2,30.03,ENE,77,0.0,0.0,61,0.00,,,0.00,Wunderground v.1.15,2013-06-05 00:35:00,
2013-06-04 20:40:00,67.9,54.4,30.02,ENE,77,0.0,1.0,62,0.00,,,0.00,Wunderground v.1.15,2013-06-05 00:40:00,
2013-06-04 20:45:00,67.5,53.6,30.03,ENE,77,0.0,1.0,61,0.00,,,0.00,Wunderground v.1.15,2013-06-05 00:45:00,
2013-06-04 20:50:00,67.2,53.3,30.03,ENE,77,0.0,0.0,61,0.00,,,0.00,Wunderground v.1.15,2013-06-05 00:50:00,
2013-06-04 20:55:00,66.9,53.5,30.02,ENE,65,0.0,0.0,62,0.00,,,0.00,Wunderground v.1.15,2013-06-05 00:55:00,
2013-06-04 21:05:00,66.4,51.6,30.02,NNW,332,0.0,0.0,59,0.00,,,0.00,Wunderground v.1.15,2013-06-05 01:05:00,
2013-06-04 21:10:00,66.2,52.3,30.02,NNW,332,0.0,0.0,61,0.00,,,0.00,Wunderground v.1.15,2013-06-05 01:10:00,
2013-06-04 21:15:00,65.8,52.0,30.02,NNW,327,0.0,0.0,61,0.00,,,0.00,Wunderground v.1.15,2013-06-05 01:15:00,
2013-06-04 21:25:00,65.1,52.2,30.02,NNW,336,0.0,0.0,63,0.00,,,0.00,Wunderground v.1.15,2013-06-05 01:25:00,
2013-06-04 21:30:00,64.9,51.6,30.03,NNW,336,0.0,0.0,62,0.00,,,0.00,Wunderground v.1.15,2013-06-05 01:30:00,
2013-06-04 21:35:00,64.7,51.8,30.03,NNW,336,0.0,0.0,63,0.00,,,0.00,Wunderground v.1.15,2013-06-05 01:35:00,
2013-06-04 21:40:00,64.5,52.9,30.03,NNW,336,0.0,0.0,66,0.00,,,0.00,Wunderground v.1.15,2013-06-05 01:40:00,
2013-06-04 21:45:00,64.2,53.0,30.03,NNW,336,0.0,0.0,67,0.00,,,0.00,Wunderground v.1.15,2013-06-05 01:45:00,
2013-06-04 21:50:00,63.9,51.9,30.03,NNW,336,0.0,0.0,65,0.00,,,0.00,Wunderground v.1.15,2013-06-05 01:50:00,
2013-06-04 21:55:00,63.5,53.1,30.03,NNW,336,0.0,0.0,69,0.00,,,0.00,Wunderground v.1.15,2013-06-05 01:55:00,
2013-06-04 22:00:00,63.1,52.0,30.03,NNW,336,0.0,0.0,67,0.00,,,0.00,Wunderground v.1.15,2013-06-05 02:00:00,
2013-06-04 22:05:00,62.8,52.1,30.03,NE,52,0.0,0.0,68,0.00,,,0.00,Wunderground v.1.15,2013-06-05 02:05:00,
2013-06-04 22:10:00,62.6,52.3,30.03,NE,52,0.0,0.0,69,0.00,,,0.00,Wunderground v.1.15,2013-06-05 02:10:00,
2013-06-04 22:15:00,62.4,52.1,30.03,NE,52,0.0,0.0,69,0.00,,,0.00,Wunderground v.1.15,2013-06-05 02:15:00,
2013-06-04 22:25:00,62.3,52.4,30.03,NE,54,0.0,0.0,70,0.00,,,0.00,Wunderground v.1.15,2013-06-05 02:25:00,
2013-06-04 22:30:00,62.2,52.3,30.03,NE,54,0.0,0.0,70,0.00,,,0.00,Wunderground v.1.15,2013-06-05 02:30:00,
2013-06-04 22:35:00,62.2,51.9,30.03,NE,54,0.0,0.0,69,0.00,,,0.00,Wunderground v.1.15,2013-06-05 02:35:00,
2013-06-04 22:40:00,62.2,51.9,30.03,NE,54,0.0,0.0,69,0.00,,,0.00,Wunderground v.1.15,2013-06-05 02:40:00,
2013-06-04 22:45:00,62.2,52.3,30.03,NE,54,0.0,0.0,70,0.00,,,0.00,Wunderground v.1.15,2013-06-05 02:45:00,
2013-06-04 22:50:00,62.2,51.5,30.03,NE,54,0.0,0.0,68,0.00,,,0.00,Wunderground v.1.15,2013-06-05 02:50:00,
2013-06-04 22:55:00,62.2,52.3,30.04,NE,54,0.0,0.0,70,0.00,,,0.00,Wunderground v.1.15,2013-06-05 02:55:00,
2013-06-04 23:00:00,62.1,52.2,30.04,NE,54,0.0,0.0,70,0.00,,,0.00,Wunderground v.1.15,2013-06-05 03:00:00,
2013-06-04 23:10:00,61.9,52.4,30.04,NE,54,0.0,0.0,71,0.00,,,0.00,Wunderground v.1.15,2013-06-05 03:10:00,
2013-06-04 23:15:00,61.7,51.8,30.04,NE,54,0.0,0.0,70,0.00,,,0.00,Wunderground v.1.15,2013-06-05 03:15:00,
2013-06-04 23:20:00,61.5,52.0,30.04,NE,54,0.0,0.0,71,0.00,,,0.00,Wunderground v.1.15,2013-06-05 03:20:00,
2013-06-04 23:25:00,61.4,51.9,30.04,NE,54,0.0,0.0,71,0.00,,,0.00,Wunderground v.1.15,2013-06-05 03:25:00,
2013-06-04 23:30:00,61.3,51.8,30.04,NE,54,0.0,0.0,71,0.00,,,0.00,Wunderground v.1.15,2013-06-05 03:30:00,
2013-06-04 23:35:00,61.2,52.1,30.04,NE,54,0.0,2.0,72,0.00,,,0.00,Wunderground v.1.15,2013-06-05 03:35:00,
2013-06-04 23:40:00,61.0,51.9,30.04,NE,55,0.0,2.0,72,0.00,,,0.00,Wunderground v.1.15,2013-06-05 03:40:00,
2013-06-04 23:45:00,60.8,52.5,30.04,ESE,103,0.0,2.0,74,0.00,,,0.00,Wunderground v.1.15,2013-06-05 03:45:00,
2013-06-04 23:50:00,60.6,52.3,30.04,ESE,103,0.0,2.0,74,0.00,,,0.00,Wunderground v.1.15,2013-06-05 03:50:00,
2013-06-04 23:55:00,60.4,52.4,30.04,East,85,0.0,2.0,75,0.00,,,0.00,Wunderground v.1.15,2013-06-05 03:55:00,